sensor_id;sensor_type;location;lat;lon;timestamp;pressure;altitude;pressure_sealevel;temperature;humidity
14117;BME280;7137;51.436;6.544;2023-10-19T00:02:32;99018.56;;;11.65;100.00
14117;BME280;7137;51.436;6.544;2023-10-19T00:05:35;99012.50;;;11.64;100.00
14117;BME280;7137;51.436;6.544;2023-10-19T00:08:37;99005.81;;;11.60;100.00
14117;BME280;7137;51.436;6.544;2023-10-19T00:11:41;99002.69;;;11.68;100.00
14117;BME280;7137;51.436;6.544;2023-10-19T00:14:44;99007.34;;;11.77;100.00
14117;BME280;7137;51.436;6.544;2023-10-19T00:17:47;99001.47;;;11.73;100.00
14117;BME280;7137;51.436;6.544;2023-10-19T00:20:48;99003.78;;;11.78;100.00
14117;BME280;7137;51.436;6.544;2023-10-19T00:23:54;98996.22;;;11.87;100.00
14117;BME280;7137;51.436;6.544;2023-10-19T00:26:57;98993.50;;;11.89;100.00
14117;BME280;7137;51.436;6.544;2023-10-19T00:30:08;98990.47;;;11.95;100.00
14117;BME280;7137;51.436;6.544;2023-10-19T00:33:19;98979.72;;;12.00;100.00
14117;BME280;7137;51.436;6.544;2023-10-19T00:36:22;98984.72;;;11.90;100.00
14117;BME280;7137;51.436;6.544;2023-10-19T00:39:24;98978.38;;;12.07;100.00
14117;BME280;7137;51.436;6.544;2023-10-19T00:42:27;98985.81;;;12.00;100.00
14117;BME280;7137;51.436;6.544;2023-10-19T00:45:32;98986.44;;;12.04;100.00
14117;BME280;7137;51.436;6.544;2023-10-19T00:48:40;98988.31;;;12.02;100.00
14117;BME280;7137;51.436;6.544;2023-10-19T00:51:45;98989.06;;;12.04;100.00
14117;BME280;7137;51.436;6.544;2023-10-19T00:54:55;98995.84;;;12.06;100.00
14117;BME280;7137;51.436;6.544;2023-10-19T00:58:00;98982.16;;;12.03;100.00
14117;BME280;7137;51.436;6.544;2023-10-19T01:01:11;98975.88;;;12.05;100.00
14117;BME280;7137;51.436;6.544;2023-10-19T01:04:13;98979.44;;;12.04;100.00
14117;BME280;7137;51.436;6.544;2023-10-19T01:07:20;98975.22;;;12.02;100.00
14117;BME280;7137;51.436;6.544;2023-10-19T01:10:27;98972.31;;;12.06;100.00
14117;BME280;7137;51.436;6.544;2023-10-19T01:13:31;98971.91;;;12.12;100.00
14117;BME280;7137;51.436;6.544;2023-10-19T01:16:36;98980.72;;;12.24;100.00
14117;BME280;7137;51.436;6.544;2023-10-19T01:19:38;98981.38;;;12.28;100.00
14117;BME280;7137;51.436;6.544;2023-10-19T01:22:49;98980.75;;;12.37;100.00
14117;BME280;7137;51.436;6.544;2023-10-19T01:25:55;98983.91;;;12.42;100.00
14117;BME280;7137;51.436;6.544;2023-10-19T01:29:08;98978.97;;;12.37;100.00
14117;BME280;7137;51.436;6.544;2023-10-19T01:32:13;98984.75;;;12.42;100.00
14117;BME280;7137;51.436;6.544;2023-10-19T01:35:16;98982.13;;;12.42;100.00
14117;BME280;7137;51.436;6.544;2023-10-19T01:38:19;98976.06;;;12.55;100.00
14117;BME280;7137;51.436;6.544;2023-10-19T01:41:19;98975.31;;;12.53;100.00
14117;BME280;7137;51.436;6.544;2023-10-19T01:44:21;98974.78;;;12.47;100.00
14117;BME280;7137;51.436;6.544;2023-10-19T01:47:25;98978.38;;;12.59;100.00
14117;BME280;7137;51.436;6.544;2023-10-19T01:50:28;98981.09;;;12.70;100.00
14117;BME280;7137;51.436;6.544;2023-10-19T01:53:30;98978.28;;;12.73;100.00
14117;BME280;7137;51.436;6.544;2023-10-19T01:56:32;98967.16;;;12.70;100.00
14117;BME280;7137;51.436;6.544;2023-10-19T01:59:35;98963.59;;;12.71;100.00
14117;BME280;7137;51.436;6.544;2023-10-19T02:02:37;98961.28;;;12.79;100.00
14117;BME280;7137;51.436;6.544;2023-10-19T02:05:37;98965.91;;;12.88;100.00
14117;BME280;7137;51.436;6.544;2023-10-19T02:08:45;98954.56;;;12.88;100.00
14117;BME280;7137;51.436;6.544;2023-10-19T02:11:50;98948.59;;;12.86;100.00
14117;BME280;7137;51.436;6.544;2023-10-19T02:14:53;98954.69;;;12.86;100.00
14117;BME280;7137;51.436;6.544;2023-10-19T02:17:54;98943.38;;;12.86;100.00
14117;BME280;7137;51.436;6.544;2023-10-19T02:20:56;98946.72;;;12.88;100.00
14117;BME280;7137;51.436;6.544;2023-10-19T02:24:00;98941.47;;;12.88;100.00
14117;BME280;7137;51.436;6.544;2023-10-19T02:27:01;98937.78;;;12.90;100.00
14117;BME280;7137;51.436;6.544;2023-10-19T02:30:03;98938.00;;;12.87;100.00
14117;BME280;7137;51.436;6.544;2023-10-19T02:33:05;98934.06;;;12.82;100.00
14117;BME280;7137;51.436;6.544;2023-10-19T02:36:06;98931.09;;;12.86;100.00
14117;BME280;7137;51.436;6.544;2023-10-19T02:39:15;98936.84;;;12.91;100.00
14117;BME280;7137;51.436;6.544;2023-10-19T02:42:18;98931.38;;;12.94;100.00
14117;BME280;7137;51.436;6.544;2023-10-19T02:45:22;98937.56;;;12.93;100.00
14117;BME280;7137;51.436;6.544;2023-10-19T02:48:24;98937.56;;;13.06;100.00
14117;BME280;7137;51.436;6.544;2023-10-19T02:51:25;98932.41;;;13.17;100.00
14117;BME280;7137;51.436;6.544;2023-10-19T02:54:27;98934.06;;;13.31;100.00
14117;BME280;7137;51.436;6.544;2023-10-19T02:57:33;98929.56;;;13.33;100.00
14117;BME280;7137;51.436;6.544;2023-10-19T03:00:36;98931.72;;;13.52;100.00
14117;BME280;7137;51.436;6.544;2023-10-19T03:03:37;98932.59;;;13.63;100.00
14117;BME280;7137;51.436;6.544;2023-10-19T03:06:39;98927.97;;;13.67;100.00
14117;BME280;7137;51.436;6.544;2023-10-19T03:09:43;98925.53;;;13.64;100.00
14117;BME280;7137;51.436;6.544;2023-10-19T03:12:49;98928.09;;;13.65;100.00
14117;BME280;7137;51.436;6.544;2023-10-19T03:15:51;98918.03;;;13.59;100.00
14117;BME280;7137;51.436;6.544;2023-10-19T03:18:53;98928.50;;;13.59;100.00
14117;BME280;7137;51.436;6.544;2023-10-19T03:21:55;98925.41;;;13.54;100.00
14117;BME280;7137;51.436;6.544;2023-10-19T03:24:57;98922.78;;;13.54;100.00
14117;BME280;7137;51.436;6.544;2023-10-19T03:28:14;98918.13;;;13.58;100.00
14117;BME280;7137;51.436;6.544;2023-10-19T03:31:17;98916.47;;;13.57;100.00
14117;BME280;7137;51.436;6.544;2023-10-19T03:34:19;98914.22;;;13.63;100.00
14117;BME280;7137;51.436;6.544;2023-10-19T03:37:24;98906.31;;;13.52;100.00
14117;BME280;7137;51.436;6.544;2023-10-19T03:40:27;98913.44;;;13.50;100.00
14117;BME280;7137;51.436;6.544;2023-10-19T03:43:31;98906.41;;;13.51;100.00
14117;BME280;7137;51.436;6.544;2023-10-19T03:46:33;98910.19;;;13.47;100.00
14117;BME280;7137;51.436;6.544;2023-10-19T03:49:38;98892.91;;;13.44;100.00
14117;BME280;7137;51.436;6.544;2023-10-19T03:52:41;98900.53;;;13.47;100.00
14117;BME280;7137;51.436;6.544;2023-10-19T03:55:44;98902.50;;;13.56;100.00
14117;BME280;7137;51.436;6.544;2023-10-19T03:58:47;98886.66;;;13.58;100.00
14117;BME280;7137;51.436;6.544;2023-10-19T04:01:51;98880.28;;;13.73;100.00
14117;BME280;7137;51.436;6.544;2023-10-19T04:04:52;98878.72;;;13.71;100.00
14117;BME280;7137;51.436;6.544;2023-10-19T04:07:56;98884.75;;;13.60;100.00
14117;BME280;7137;51.436;6.544;2023-10-19T04:10:59;98878.06;;;13.56;100.00
14117;BME280;7137;51.436;6.544;2023-10-19T04:14:11;98882.25;;;13.58;100.00
14117;BME280;7137;51.436;6.544;2023-10-19T04:17:15;98880.56;;;13.57;100.00
14117;BME280;7137;51.436;6.544;2023-10-19T04:20:21;98877.28;;;13.66;100.00
14117;BME280;7137;51.436;6.544;2023-10-19T04:23:42;98878.13;;;13.67;100.00
14117;BME280;7137;51.436;6.544;2023-10-19T04:26:45;98883.63;;;13.75;100.00
14117;BME280;7137;51.436;6.544;2023-10-19T04:29:49;98875.38;;;13.69;100.00
14117;BME280;7137;51.436;6.544;2023-10-19T04:32:51;98878.94;;;13.68;100.00
14117;BME280;7137;51.436;6.544;2023-10-19T04:35:52;98881.34;;;13.71;100.00
14117;BME280;7137;51.436;6.544;2023-10-19T04:38:56;98884.69;;;13.73;100.00
14117;BME280;7137;51.436;6.544;2023-10-19T04:41:59;98877.88;;;13.70;100.00
14117;BME280;7137;51.436;6.544;2023-10-19T04:45:00;98885.16;;;13.66;100.00
14117;BME280;7137;51.436;6.544;2023-10-19T04:48:03;98884.22;;;13.79;100.00
14117;BME280;7137;51.436;6.544;2023-10-19T04:51:06;98875.13;;;13.72;100.00
14117;BME280;7137;51.436;6.544;2023-10-19T04:54:09;98880.28;;;13.73;100.00
14117;BME280;7137;51.436;6.544;2023-10-19T04:57:12;98875.69;;;13.64;100.00
14117;BME280;7137;51.436;6.544;2023-10-19T05:00:14;98875.66;;;13.53;100.00
14117;BME280;7137;51.436;6.544;2023-10-19T05:03:16;98882.06;;;13.49;100.00
14117;BME280;7137;51.436;6.544;2023-10-19T05:06:19;98877.22;;;13.55;100.00
14117;BME280;7137;51.436;6.544;2023-10-19T05:09:22;98881.88;;;13.52;100.00
14117;BME280;7137;51.436;6.544;2023-10-19T05:12:25;98891.00;;;13.46;100.00
14117;BME280;7137;51.436;6.544;2023-10-19T05:15:27;98882.88;;;13.38;100.00
14117;BME280;7137;51.436;6.544;2023-10-19T05:18:28;98886.63;;;13.34;100.00
14117;BME280;7137;51.436;6.544;2023-10-19T05:21:30;98883.28;;;13.32;100.00
14117;BME280;7137;51.436;6.544;2023-10-19T05:24:32;98885.69;;;13.35;100.00
14117;BME280;7137;51.436;6.544;2023-10-19T05:27:34;98889.78;;;13.39;100.00
14117;BME280;7137;51.436;6.544;2023-10-19T05:30:37;98893.97;;;13.42;100.00
14117;BME280;7137;51.436;6.544;2023-10-19T05:33:38;98891.22;;;13.43;100.00
14117;BME280;7137;51.436;6.544;2023-10-19T05:36:40;98880.69;;;13.56;100.00
14117;BME280;7137;51.436;6.544;2023-10-19T05:39:43;98887.38;;;13.60;100.00
14117;BME280;7137;51.436;6.544;2023-10-19T05:42:47;98893.09;;;13.65;100.00
14117;BME280;7137;51.436;6.544;2023-10-19T05:45:48;98892.19;;;13.66;100.00
14117;BME280;7137;51.436;6.544;2023-10-19T05:48:50;98882.25;;;13.58;100.00
14117;BME280;7137;51.436;6.544;2023-10-19T05:51:53;98887.94;;;13.52;100.00
14117;BME280;7137;51.436;6.544;2023-10-19T05:54:54;98898.69;;;13.60;100.00
14117;BME280;7137;51.436;6.544;2023-10-19T05:57:59;98901.09;;;13.63;100.00
14117;BME280;7137;51.436;6.544;2023-10-19T06:01:00;98901.72;;;13.67;100.00
14117;BME280;7137;51.436;6.544;2023-10-19T06:04:03;98898.16;;;13.68;100.00
14117;BME280;7137;51.436;6.544;2023-10-19T06:07:05;98903.53;;;13.78;100.00
14117;BME280;7137;51.436;6.544;2023-10-19T06:10:08;98909.97;;;13.74;100.00
14117;BME280;7137;51.436;6.544;2023-10-19T06:13:11;98908.34;;;13.84;100.00
14117;BME280;7137;51.436;6.544;2023-10-19T06:16:12;98917.78;;;13.86;100.00
14117;BME280;7137;51.436;6.544;2023-10-19T06:19:15;98922.81;;;13.89;100.00
14117;BME280;7137;51.436;6.544;2023-10-19T06:22:17;98919.50;;;13.99;100.00
14117;BME280;7137;51.436;6.544;2023-10-19T06:25:19;98926.38;;;13.88;100.00
14117;BME280;7137;51.436;6.544;2023-10-19T06:28:22;98921.78;;;13.79;100.00
14117;BME280;7137;51.436;6.544;2023-10-19T06:31:24;98934.47;;;13.85;100.00
14117;BME280;7137;51.436;6.544;2023-10-19T06:34:28;98928.88;;;13.90;100.00
14117;BME280;7137;51.436;6.544;2023-10-19T06:37:30;98933.53;;;13.86;100.00
14117;BME280;7137;51.436;6.544;2023-10-19T06:40:34;98936.72;;;13.79;100.00
14117;BME280;7137;51.436;6.544;2023-10-19T06:43:37;98929.00;;;13.88;100.00
14117;BME280;7137;51.436;6.544;2023-10-19T06:46:39;98934.97;;;13.90;100.00
14117;BME280;7137;51.436;6.544;2023-10-19T06:49:41;98937.66;;;14.02;100.00
14117;BME280;7137;51.436;6.544;2023-10-19T06:52:44;98941.72;;;14.06;100.00
14117;BME280;7137;51.436;6.544;2023-10-19T06:55:47;98946.75;;;14.09;100.00
14117;BME280;7137;51.436;6.544;2023-10-19T06:58:50;98943.28;;;14.08;100.00
14117;BME280;7137;51.436;6.544;2023-10-19T07:01:51;98934.22;;;14.12;100.00
14117;BME280;7137;51.436;6.544;2023-10-19T07:04:53;98949.19;;;14.23;100.00
14117;BME280;7137;51.436;6.544;2023-10-19T07:07:54;98947.28;;;14.25;100.00
14117;BME280;7137;51.436;6.544;2023-10-19T07:10:56;98956.25;;;14.34;100.00
14117;BME280;7137;51.436;6.544;2023-10-19T07:14:01;98945.28;;;14.40;100.00
14117;BME280;7137;51.436;6.544;2023-10-19T07:17:04;98953.75;;;14.43;100.00
14117;BME280;7137;51.436;6.544;2023-10-19T07:20:06;98961.81;;;14.53;100.00
14117;BME280;7137;51.436;6.544;2023-10-19T07:23:10;98955.63;;;14.65;100.00
14117;BME280;7137;51.436;6.544;2023-10-19T07:26:18;98962.22;;;14.82;100.00
14117;BME280;7137;51.436;6.544;2023-10-19T07:29:23;98966.03;;;14.89;100.00
14117;BME280;7137;51.436;6.544;2023-10-19T07:32:24;98957.31;;;14.89;100.00
14117;BME280;7137;51.436;6.544;2023-10-19T07:39:22;98958.78;;;14.93;100.00
14117;BME280;7137;51.436;6.544;2023-10-19T07:42:24;98953.13;;;14.97;100.00
14117;BME280;7137;51.436;6.544;2023-10-19T07:45:27;98955.53;;;15.00;100.00
14117;BME280;7137;51.436;6.544;2023-10-19T07:48:29;98959.25;;;15.09;100.00
14117;BME280;7137;51.436;6.544;2023-10-19T07:51:30;98965.34;;;15.21;100.00
14117;BME280;7137;51.436;6.544;2023-10-19T07:54:32;98961.63;;;15.12;100.00
14117;BME280;7137;51.436;6.544;2023-10-19T07:57:33;98965.09;;;15.12;100.00
14117;BME280;7137;51.436;6.544;2023-10-19T08:00:37;98956.25;;;15.25;100.00
14117;BME280;7137;51.436;6.544;2023-10-19T08:03:39;98953.94;;;15.42;100.00
14117;BME280;7137;51.436;6.544;2023-10-19T08:06:41;98953.53;;;15.58;100.00
14117;BME280;7137;51.436;6.544;2023-10-19T08:09:42;98955.22;;;15.70;100.00
14117;BME280;7137;51.436;6.544;2023-10-19T08:12:44;98950.03;;;15.80;100.00
14117;BME280;7137;51.436;6.544;2023-10-19T08:15:48;98940.31;;;15.92;100.00
14117;BME280;7137;51.436;6.544;2023-10-19T08:18:51;98937.91;;;15.89;100.00
14117;BME280;7137;51.436;6.544;2023-10-19T08:21:53;98941.19;;;16.02;100.00
14117;BME280;7137;51.436;6.544;2023-10-19T08:24:54;98946.88;;;15.97;100.00
14117;BME280;7137;51.436;6.544;2023-10-19T08:27:56;98941.16;;;15.92;100.00
14117;BME280;7137;51.436;6.544;2023-10-19T08:30:59;98933.81;;;15.96;100.00
14117;BME280;7137;51.436;6.544;2023-10-19T08:34:01;98936.66;;;16.04;100.00
14117;BME280;7137;51.436;6.544;2023-10-19T08:37:03;98935.13;;;16.22;100.00
14117;BME280;7137;51.436;6.544;2023-10-19T08:40:06;98934.47;;;16.30;100.00
14117;BME280;7137;51.436;6.544;2023-10-19T08:43:08;98928.09;;;16.32;100.00
14117;BME280;7137;51.436;6.544;2023-10-19T08:46:14;98932.31;;;16.35;100.00
14117;BME280;7137;51.436;6.544;2023-10-19T08:49:16;98940.53;;;16.42;100.00
14117;BME280;7137;51.436;6.544;2023-10-19T08:52:21;98935.19;;;16.53;100.00
14117;BME280;7137;51.436;6.544;2023-10-19T08:55:24;98933.38;;;16.74;99.80
14117;BME280;7137;51.436;6.544;2023-10-19T08:58:26;98917.03;;;16.80;99.96
14117;BME280;7137;51.436;6.544;2023-10-19T09:01:29;98910.03;;;17.00;98.65
14117;BME280;7137;51.436;6.544;2023-10-19T09:04:31;98909.91;;;17.02;98.95
14117;BME280;7137;51.436;6.544;2023-10-19T09:07:32;98918.09;;;16.99;99.41
14117;BME280;7137;51.436;6.544;2023-10-19T09:10:34;98917.19;;;16.88;99.26
14117;BME280;7137;51.436;6.544;2023-10-19T09:13:46;98912.50;;;17.32;98.29
14117;BME280;7137;51.436;6.544;2023-10-19T09:17:05;98918.16;;;17.77;95.97
14117;BME280;7137;51.436;6.544;2023-10-19T09:20:07;98910.66;;;17.92;95.04
14117;BME280;7137;51.436;6.544;2023-10-19T09:23:10;98911.06;;;17.97;95.31
14117;BME280;7137;51.436;6.544;2023-10-19T09:26:11;98902.56;;;17.94;94.81
14117;BME280;7137;51.436;6.544;2023-10-19T09:29:17;98907.88;;;18.03;93.79
14117;BME280;7137;51.436;6.544;2023-10-19T09:32:21;98913.78;;;19.01;90.51
14117;BME280;7137;51.436;6.544;2023-10-19T09:35:24;98902.75;;;20.99;82.90
14117;BME280;7137;51.436;6.544;2023-10-19T09:38:28;98912.63;;;21.74;79.63
14117;BME280;7137;51.436;6.544;2023-10-19T09:41:30;98900.53;;;22.20;75.87
14117;BME280;7137;51.436;6.544;2023-10-19T09:44:39;98906.69;;;22.37;73.97
14117;BME280;7137;51.436;6.544;2023-10-19T09:47:47;98909.34;;;21.96;74.36
14117;BME280;7137;51.436;6.544;2023-10-19T09:50:53;98910.16;;;20.88;78.57
14117;BME280;7137;51.436;6.544;2023-10-19T09:53:59;98916.50;;;20.69;81.04
14117;BME280;7137;51.436;6.544;2023-10-19T09:57:03;98909.34;;;20.17;83.45
14117;BME280;7137;51.436;6.544;2023-10-19T10:00:11;98907.03;;;20.14;81.64
14117;BME280;7137;51.436;6.544;2023-10-19T10:03:46;98899.00;;;19.89;81.18
14117;BME280;7137;51.436;6.544;2023-10-19T10:06:57;98899.38;;;19.76;85.53
14117;BME280;7137;51.436;6.544;2023-10-19T10:10:00;98895.22;;;20.35;82.59
14117;BME280;7137;51.436;6.544;2023-10-19T10:13:38;98891.53;;;20.45;83.17
14117;BME280;7137;51.436;6.544;2023-10-19T10:16:40;98897.06;;;20.60;78.04
14117;BME280;7137;51.436;6.544;2023-10-19T10:19:42;98894.63;;;20.23;79.24
14117;BME280;7137;51.436;6.544;2023-10-19T10:22:44;98881.44;;;20.31;80.27
14117;BME280;7137;51.436;6.544;2023-10-19T10:25:46;98882.88;;;20.43;78.28
14117;BME280;7137;51.436;6.544;2023-10-19T10:29:08;98868.97;;;20.50;78.77
14117;BME280;7137;51.436;6.544;2023-10-19T10:32:12;98875.28;;;20.49;78.63
14117;BME280;7137;51.436;6.544;2023-10-19T10:39:02;98874.50;;;20.56;77.19
14117;BME280;7137;51.436;6.544;2023-10-19T10:42:06;98871.00;;;20.12;78.72
14117;BME280;7137;51.436;6.544;2023-10-19T10:45:18;98871.72;;;19.96;77.74
14117;BME280;7137;51.436;6.544;2023-10-19T10:48:20;98885.09;;;20.30;80.28
14117;BME280;7137;51.436;6.544;2023-10-19T10:51:24;98872.19;;;20.35;76.49
14117;BME280;7137;51.436;6.544;2023-10-19T10:54:27;98861.50;;;20.79;79.32
14117;BME280;7137;51.436;6.544;2023-10-19T10:57:32;98865.00;;;20.80;77.02
14117;BME280;7137;51.436;6.544;2023-10-19T11:00:34;98857.50;;;21.17;76.99
14117;BME280;7137;51.436;6.544;2023-10-19T11:03:43;98861.09;;;21.50;72.75
14117;BME280;7137;51.436;6.544;2023-10-19T11:06:51;98858.13;;;22.02;70.04
14117;BME280;7137;51.436;6.544;2023-10-19T11:09:56;98852.44;;;22.54;68.54
14117;BME280;7137;51.436;6.544;2023-10-19T11:13:00;98854.63;;;22.42;69.39
14117;BME280;7137;51.436;6.544;2023-10-19T11:16:04;98851.31;;;21.91;70.52
14117;BME280;7137;51.436;6.544;2023-10-19T11:19:06;98854.00;;;21.83;70.34
14117;BME280;7137;51.436;6.544;2023-10-19T11:22:10;98854.00;;;21.83;71.98
14117;BME280;7137;51.436;6.544;2023-10-19T11:25:20;98837.69;;;21.62;74.25
14117;BME280;7137;51.436;6.544;2023-10-19T11:28:22;98846.34;;;20.97;72.50
14117;BME280;7137;51.436;6.544;2023-10-19T11:31:28;98829.88;;;20.86;74.01
14117;BME280;7137;51.436;6.544;2023-10-19T11:34:38;98826.06;;;20.96;72.26
14117;BME280;7137;51.436;6.544;2023-10-19T11:37:47;98834.41;;;20.67;71.13
14117;BME280;7137;51.436;6.544;2023-10-19T11:40:50;98826.59;;;20.40;73.67
14117;BME280;7137;51.436;6.544;2023-10-19T11:43:53;98827.00;;;20.19;76.84
14117;BME280;7137;51.436;6.544;2023-10-19T11:46:54;98831.72;;;20.07;76.55
14117;BME280;7137;51.436;6.544;2023-10-19T11:49:56;98818.69;;;20.14;75.76
14117;BME280;7137;51.436;6.544;2023-10-19T11:52:59;98810.16;;;20.28;74.42
14117;BME280;7137;51.436;6.544;2023-10-19T11:56:04;98818.72;;;20.22;76.90
14117;BME280;7137;51.436;6.544;2023-10-19T11:59:06;98817.25;;;20.45;76.97
14117;BME280;7137;51.436;6.544;2023-10-19T12:02:08;98813.44;;;20.48;76.91
14117;BME280;7137;51.436;6.544;2023-10-19T12:05:10;98808.63;;;20.26;77.77
14117;BME280;7137;51.436;6.544;2023-10-19T12:08:11;98817.81;;;20.57;77.12
14117;BME280;7137;51.436;6.544;2023-10-19T12:11:15;98808.31;;;20.55;77.03
14117;BME280;7137;51.436;6.544;2023-10-19T12:14:18;98812.34;;;20.59;77.27
14117;BME280;7137;51.436;6.544;2023-10-19T12:17:21;98814.81;;;20.60;78.20
14117;BME280;7137;51.436;6.544;2023-10-19T12:20:26;98803.97;;;20.88;77.36
14117;BME280;7137;51.436;6.544;2023-10-19T12:23:28;98802.69;;;21.00;75.84
14117;BME280;7137;51.436;6.544;2023-10-19T12:26:32;98799.00;;;20.85;76.74
14117;BME280;7137;51.436;6.544;2023-10-19T12:29:34;98804.53;;;20.99;76.67
14117;BME280;7137;51.436;6.544;2023-10-19T12:32:35;98808.31;;;20.97;76.55
14117;BME280;7137;51.436;6.544;2023-10-19T12:35:37;98804.94;;;20.79;75.20
14117;BME280;7137;51.436;6.544;2023-10-19T12:38:51;98804.28;;;20.77;76.09
14117;BME280;7137;51.436;6.544;2023-10-19T12:41:56;98800.00;;;20.92;75.56
14117;BME280;7137;51.436;6.544;2023-10-19T12:44:58;98803.34;;;21.02;75.69
14117;BME280;7137;51.436;6.544;2023-10-19T12:47:59;98796.81;;;20.72;75.38
14117;BME280;7137;51.436;6.544;2023-10-19T12:51:01;98805.66;;;20.55;76.04
14117;BME280;7137;51.436;6.544;2023-10-19T12:54:04;98789.56;;;20.22;78.73
14117;BME280;7137;51.436;6.544;2023-10-19T12:57:10;98796.25;;;20.08;79.22
14117;BME280;7137;51.436;6.544;2023-10-19T13:00:13;98792.94;;;20.06;79.93
14117;BME280;7137;51.436;6.544;2023-10-19T13:03:29;98789.41;;;19.98;79.76
14117;BME280;7137;51.436;6.544;2023-10-19T13:06:32;98778.78;;;19.98;80.20
14117;BME280;7137;51.436;6.544;2023-10-19T13:09:35;98780.94;;;19.94;79.78
14117;BME280;7137;51.436;6.544;2023-10-19T13:12:38;98784.22;;;19.88;80.36
14117;BME280;7137;51.436;6.544;2023-10-19T13:15:41;98767.81;;;19.49;81.22
14117;BME280;7137;51.436;6.544;2023-10-19T13:18:44;98774.41;;;19.45;83.54
14117;BME280;7137;51.436;6.544;2023-10-19T13:21:47;98775.84;;;19.21;86.64
14117;BME280;7137;51.436;6.544;2023-10-19T13:24:49;98779.00;;;18.89;88.36
14117;BME280;7137;51.436;6.544;2023-10-19T13:27:52;98782.53;;;18.80;89.28
14117;BME280;7137;51.436;6.544;2023-10-19T13:30:54;98778.22;;;18.79;91.83
14117;BME280;7137;51.436;6.544;2023-10-19T13:33:55;98777.91;;;18.82;92.14
14117;BME280;7137;51.436;6.544;2023-10-19T13:36:57;98772.81;;;18.71;92.34
14117;BME280;7137;51.436;6.544;2023-10-19T13:39:58;98769.66;;;18.67;93.19
14117;BME280;7137;51.436;6.544;2023-10-19T13:43:02;98762.13;;;18.73;94.74
14117;BME280;7137;51.436;6.544;2023-10-19T13:46:06;98763.22;;;18.70;93.97
14117;BME280;7137;51.436;6.544;2023-10-19T13:49:08;98752.28;;;18.55;97.02
14117;BME280;7137;51.436;6.544;2023-10-19T13:52:10;98755.03;;;18.36;97.70
14117;BME280;7137;51.436;6.544;2023-10-19T13:55:11;98753.59;;;18.42;97.44
14117;BME280;7137;51.436;6.544;2023-10-19T13:58:18;98741.53;;;18.29;97.74
14117;BME280;7137;51.436;6.544;2023-10-19T14:01:21;98735.56;;;18.27;98.45
14117;BME280;7137;51.436;6.544;2023-10-19T14:04:24;98732.22;;;18.35;97.92
14117;BME280;7137;51.436;6.544;2023-10-19T14:07:26;98730.97;;;18.29;98.46
14117;BME280;7137;51.436;6.544;2023-10-19T14:10:27;98720.88;;;18.15;99.72
14117;BME280;7137;51.436;6.544;2023-10-19T14:13:30;98713.38;;;18.20;98.26
14117;BME280;7137;51.436;6.544;2023-10-19T14:16:32;98708.16;;;18.28;98.67
14117;BME280;7137;51.436;6.544;2023-10-19T14:19:33;98708.44;;;18.35;98.53
14117;BME280;7137;51.436;6.544;2023-10-19T14:22:35;98712.03;;;18.34;97.71
14117;BME280;7137;51.436;6.544;2023-10-19T14:25:37;98707.66;;;18.43;98.86
14117;BME280;7137;51.436;6.544;2023-10-19T14:28:41;98713.41;;;18.38;98.19
14117;BME280;7137;51.436;6.544;2023-10-19T14:31:42;98703.78;;;18.19;99.59
14117;BME280;7137;51.436;6.544;2023-10-19T14:34:44;98698.22;;;18.13;100.00
14117;BME280;7137;51.436;6.544;2023-10-19T14:37:48;98686.44;;;18.07;99.86
14117;BME280;7137;51.436;6.544;2023-10-19T14:40:50;98682.13;;;18.06;99.94
14117;BME280;7137;51.436;6.544;2023-10-19T14:43:55;98670.72;;;18.05;99.66
14117;BME280;7137;51.436;6.544;2023-10-19T14:46:56;98665.66;;;17.85;100.00
14117;BME280;7137;51.436;6.544;2023-10-19T14:49:58;98656.56;;;17.97;100.00
14117;BME280;7137;51.436;6.544;2023-10-19T14:53:00;98647.66;;;17.98;99.99
14117;BME280;7137;51.436;6.544;2023-10-19T14:56:02;98645.78;;;17.90;100.00
14117;BME280;7137;51.436;6.544;2023-10-19T14:59:05;98641.56;;;17.97;100.00
14117;BME280;7137;51.436;6.544;2023-10-19T15:02:07;98634.75;;;17.95;100.00
14117;BME280;7137;51.436;6.544;2023-10-19T15:05:13;98628.59;;;17.76;100.00
14117;BME280;7137;51.436;6.544;2023-10-19T15:08:16;98640.22;;;17.84;100.00
14117;BME280;7137;51.436;6.544;2023-10-19T15:11:17;98636.91;;;17.82;100.00
14117;BME280;7137;51.436;6.544;2023-10-19T15:14:23;98629.97;;;17.80;100.00
14117;BME280;7137;51.436;6.544;2023-10-19T15:17:25;98628.50;;;17.96;100.00
14117;BME280;7137;51.436;6.544;2023-10-19T15:20:28;98618.22;;;17.93;100.00
14117;BME280;7137;51.436;6.544;2023-10-19T15:23:30;98609.50;;;17.83;100.00
14117;BME280;7137;51.436;6.544;2023-10-19T15:26:32;98623.97;;;17.88;100.00
14117;BME280;7137;51.436;6.544;2023-10-19T15:29:35;98639.31;;;17.75;100.00
14117;BME280;7137;51.436;6.544;2023-10-19T15:32:37;98623.47;;;17.75;100.00
14117;BME280;7137;51.436;6.544;2023-10-19T15:35:39;98624.38;;;17.84;100.00
14117;BME280;7137;51.436;6.544;2023-10-19T15:38:41;98624.00;;;17.78;100.00
14117;BME280;7137;51.436;6.544;2023-10-19T15:41:43;98610.63;;;17.80;100.00
14117;BME280;7137;51.436;6.544;2023-10-19T15:44:46;98603.16;;;17.75;100.00
14117;BME280;7137;51.436;6.544;2023-10-19T15:47:47;98598.50;;;17.87;100.00
14117;BME280;7137;51.436;6.544;2023-10-19T15:50:49;98590.53;;;17.97;100.00
14117;BME280;7137;51.436;6.544;2023-10-19T15:53:50;98586.31;;;18.04;100.00
14117;BME280;7137;51.436;6.544;2023-10-19T15:56:52;98583.97;;;18.01;100.00
14117;BME280;7137;51.436;6.544;2023-10-19T15:59:55;98580.63;;;17.99;100.00
14117;BME280;7137;51.436;6.544;2023-10-19T16:02:57;98583.88;;;17.93;100.00
14117;BME280;7137;51.436;6.544;2023-10-19T16:05:59;98581.53;;;17.90;100.00
14117;BME280;7137;51.436;6.544;2023-10-19T16:09:00;98577.50;;;17.86;100.00
14117;BME280;7137;51.436;6.544;2023-10-19T16:12:02;98576.41;;;17.88;100.00
14117;BME280;7137;51.436;6.544;2023-10-19T16:15:06;98578.34;;;17.86;100.00
14117;BME280;7137;51.436;6.544;2023-10-19T16:18:08;98562.25;;;17.79;100.00
14117;BME280;7137;51.436;6.544;2023-10-19T16:21:11;98549.38;;;17.67;100.00
14117;BME280;7137;51.436;6.544;2023-10-19T16:24:13;98561.34;;;17.61;100.00
14117;BME280;7137;51.436;6.544;2023-10-19T16:27:14;98559.47;;;17.44;100.00